Time;durP1;ratioP1;P1;durP2;ratioP2;P2;SDS_P1;SDS_P2;PMS_P1;PMS_P2;Temp;Humidity;BMP_temperature;BMP_pressure;BME280_temperature;BME280_humidity;BME280_pressure;Samples;Min_cycle;Max_cycle;Signal;HPM_P1;HPM_P2
2023/04/02 00:01:45;;;;;;;;;;;;;;;8.24;100.00;100008.09;5070283;28;20558;-88
2023/04/02 00:04:22;;;;;;;12.75;9.93;;;;;;;8.27;100.00;100018.22;5064034;28;20011;-89
2023/04/02 00:06:53;;;;;;;10.68;8.85;;;;;;;8.20;100.00;100015.44;5059930;28;20422;-89
2023/04/02 00:09:31;;;;;;;11.18;8.85;;;;;;;8.22;100.00;100031.72;5068625;28;20137;-89
2023/04/02 00:11:59;;;;;;;10.95;8.88;;;;;;;8.21;100.00;100029.28;5060871;28;20064;-89
2023/04/02 00:14:29;;;;;;;11.10;9.07;;;;;;;8.23;100.00;100033.34;5067856;28;20139;-89
2023/04/02 00:17:00;;;;;;;10.13;8.90;;;;;;;8.23;100.00;100038.56;5069914;28;20071;-89
2023/04/02 00:19:34;;;;;;;11.35;9.23;;;;;;;8.27;100.00;100045.09;5063690;28;20049;-89
2023/04/02 00:22:06;;;;;;;11.30;9.27;;;;;;;8.26;100.00;100053.09;5060678;28;20092;-89
2023/04/02 00:24:33;;;;;;;12.82;9.65;;;;;;;8.18;100.00;100056.47;5059600;28;20506;-88
2023/04/02 00:27:00;;;;;;;11.00;9.25;;;;;;;8.11;100.00;100060.66;5060390;28;20049;-89
2023/04/02 00:29:27;;;;;;;13.95;10.23;;;;;;;8.09;100.00;100075.63;5059861;28;20133;-85
2023/04/02 00:31:54;;;;;;;11.07;9.45;;;;;;;8.03;100.00;100068.44;5070868;28;20049;-85
2023/04/02 00:34:26;;;;;;;11.20;9.57;;;;;;;8.02;100.00;100073.81;5066152;28;20076;-86
2023/04/02 00:36:53;;;;;;;10.98;8.68;;;;;;;7.99;100.00;100090.56;5072781;28;20088;-85
2023/04/02 00:39:23;;;;;;;7.03;5.90;;;;;;;7.92;100.00;100081.72;5079752;28;20063;-85
2023/04/02 00:42:03;;;;;;;6.05;5.07;;;;;;;7.88;100.00;100080.38;5070386;28;20076;-86
2023/04/02 00:44:32;;;;;;;6.45;4.40;;;;;;;7.88;100.00;100088.19;5062200;28;20103;-86
2023/04/02 00:47:03;;;;;;;5.10;3.85;;;;;;;7.81;100.00;100092.38;5062630;28;20132;-84
2023/04/02 00:49:36;;;;;;;5.20;3.72;;;;;;;7.87;100.00;100099.59;5071009;28;20056;-85
2023/04/02 00:52:06;;;;;;;5.35;4.20;;;;;;;7.82;100.00;100094.81;5056180;28;20567;-84
2023/04/02 00:54:39;;;;;;;7.15;4.63;;;;;;;7.84;100.00;100100.69;5063740;28;20076;-85
2023/04/02 00:57:15;;;;;;;7.45;5.97;;;;;;;7.82;100.00;100101.81;5060125;28;20060;-86
2023/04/02 00:59:53;;;;;;;8.02;6.50;;;;;;;7.87;100.00;100115.22;5063209;28;20084;-84
2023/04/02 01:02:25;;;;;;;8.98;7.60;;;;;;;7.84;100.00;100125.94;5067690;28;20045;-85
2023/04/02 01:04:55;;;;;;;9.90;8.32;;;;;;;7.79;100.00;100133.38;5072010;28;20041;-86
2023/04/02 01:07:42;;;;;;;11.05;7.95;;;;;;;7.72;100.00;100138.34;5063699;28;20300;-87
2023/04/02 01:10:32;;;;;;;9.23;7.72;;;;;;;7.70;100.00;100136.88;5060533;28;20044;-85
2023/04/02 01:13:09;;;;;;;7.03;6.32;;;;;;;7.71;100.00;100135.91;5071345;28;20040;-86
2023/04/02 01:15:41;;;;;;;7.30;6.50;;;;;;;7.66;100.00;100144.16;5079706;28;20068;-85
2023/04/02 01:18:33;;;;;;;8.38;6.93;;;;;;;7.61;100.00;100152.41;5061990;28;20084;-84
2023/04/02 01:21:11;;;;;;;7.32;6.18;;;;;;;7.57;100.00;100161.50;5049426;28;20045;-85
2023/04/02 01:23:51;;;;;;;8.43;7.03;;;;;;;7.50;100.00;100154.44;5063254;28;20052;-85
2023/04/02 01:26:27;;;;;;;8.45;5.93;;;;;;;7.54;100.00;100161.81;5061562;28;20128;-85
2023/04/02 01:29:02;;;;;;;6.72;5.70;;;;;;;7.46;100.00;100155.69;5054291;28;20550;-86
2023/04/02 01:31:32;;;;;;;8.77;6.70;;;;;;;7.39;100.00;100158.06;5065822;28;20073;-86
2023/04/02 01:33:59;;;;;;;6.85;5.60;;;;;;;7.37;100.00;100175.63;5067154;28;20452;-84
2023/04/02 01:36:35;;;;;;;6.18;5.20;;;;;;;7.35;100.00;100167.13;5062352;28;20045;-85
2023/04/02 01:39:11;;;;;;;6.72;5.25;;;;;;;7.36;100.00;100176.59;5061057;28;20407;-85
2023/04/02 01:41:46;;;;;;;5.80;5.00;;;;;;;7.30;100.00;100184.97;5060457;28;20139;-85
2023/04/02 01:44:20;;;;;;;5.88;5.00;;;;;;;7.29;100.00;100185.94;5061168;28;20108;-87
2023/04/02 01:46:48;;;;;;;6.05;5.03;;;;;;;7.26;100.00;100191.44;5066481;28;20072;-87
2023/04/02 01:49:19;;;;;;;6.20;4.90;;;;;;;7.27;100.00;100206.91;5059314;28;20056;-86
2023/04/02 01:51:51;;;;;;;5.53;4.22;;;;;;;7.26;100.00;100204.44;5060562;28;20056;-85
2023/04/02 01:54:20;;;;;;;5.90;4.63;;;;;;;7.19;100.00;100225.00;5061853;28;20041;-85
2023/04/02 01:56:47;;;;;;;7.10;5.20;;;;;;;7.17;100.00;100213.94;5060433;28;20049;-86
2023/04/02 01:59:19;;;;;;;5.50;4.72;;;;;;;7.16;100.00;100221.88;5062950;28;20140;-85
2023/04/02 02:01:48;;;;;;;5.03;4.25;;;;;;;7.08;100.00;100227.81;5057513;28;20056;-84
2023/04/02 02:04:16;;;;;;;6.47;4.82;;;;;;;7.08;100.00;100227.81;5061934;28;20479;-84
2023/04/02 02:06:45;;;;;;;6.60;4.63;;;;;;;7.12;100.00;100233.53;5058894;28;20080;-87
2023/04/02 02:09:18;;;;;;;5.65;4.50;;;;;;;7.10;100.00;100232.84;5058537;28;20499;-86
2023/04/02 02:11:44;;;;;;;5.03;4.20;;;;;;;7.03;100.00;100240.44;5057241;28;20065;-86
2023/04/02 02:14:17;;;;;;;5.40;4.68;;;;;;;7.01;100.00;100249.34;5059085;28;20076;-86
2023/04/02 02:16:45;;;;;;;5.57;4.45;;;;;;;7.01;100.00;100257.97;5059674;28;20132;-86
2023/04/02 02:19:22;;;;;;;5.70;4.38;;;;;;;6.96;100.00;100249.78;5058080;28;20077;-85
2023/04/02 02:21:51;;;;;;;4.63;3.90;;;;;;;6.93;100.00;100274.28;5055765;28;20135;-86
2023/04/02 02:24:21;;;;;;;4.45;3.97;;;;;;;6.93;100.00;100270.84;5061277;28;20048;-86
2023/04/02 02:26:51;;;;;;;5.15;4.00;;;;;;;6.91;100.00;100272.78;5055630;28;20051;-85
2023/04/02 02:29:20;;;;;;;4.30;3.90;;;;;;;6.88;100.00;100278.25;5058672;28;20487;-83
2023/04/02 02:31:52;;;;;;;3.97;3.58;;;;;;;6.81;100.00;100290.19;5051902;28;20480;-85
2023/04/02 02:34:22;;;;;;;4.57;3.97;;;;;;;6.82;100.00;100297.84;5056344;28;20080;-86
2023/04/02 02:36:53;;;;;;;3.92;3.53;;;;;;;6.84;100.00;100298.53;5057681;28;20092;-84
2023/04/02 02:39:24;;;;;;;4.60;3.80;;;;;;;6.80;100.00;100310.16;5059677;28;20049;-84
2023/04/02 02:41:55;;;;;;;5.65;4.20;;;;;;;6.79;100.00;100311.13;5060700;28;20075;-86
2023/04/02 02:44:26;;;;;;;4.10;3.50;;;;;;;6.77;100.00;100317.41;5062638;28;20451;-86
2023/04/02 02:46:56;;;;;;;4.57;3.70;;;;;;;6.79;100.00;100316.31;5062572;28;20068;-85
2023/04/02 02:49:27;;;;;;;4.65;3.38;;;;;;;6.78;100.00;100312.09;5064182;28;20068;-86
2023/04/02 02:51:59;;;;;;;4.40;3.78;;;;;;;6.76;100.00;100326.19;5065847;28;20080;-86
2023/04/02 02:54:27;;;;;;;4.53;3.67;;;;;;;6.73;100.00;100335.09;5065825;28;20079;-85
2023/04/02 02:56:58;;;;;;;4.50;3.88;;;;;;;6.75;100.00;100335.75;5067865;28;20041;-85
2023/04/02 02:59:29;;;;;;;4.85;3.90;;;;;;;6.73;100.00;100336.84;5070343;28;20049;-84
2023/04/02 03:01:56;;;;;;;6.55;4.28;;;;;;;6.71;100.00;100344.78;5062165;28;20056;-86
2023/04/02 03:04:24;;;;;;;6.40;4.30;;;;;;;6.74;100.00;100349.72;5061586;28;20108;-85
2023/04/02 03:06:53;;;;;;;4.43;3.88;;;;;;;6.69;100.00;100351.91;5061577;28;20141;-86
2023/04/02 03:09:27;;;;;;;4.70;3.70;;;;;;;6.70;100.00;100363.13;5061606;28;20132;-86
2023/04/02 03:12:01;;;;;;;5.00;3.90;;;;;;;6.71;100.00;100360.41;5060653;28;20149;-85
2023/04/02 03:14:34;;;;;;;5.22;4.05;;;;;;;6.69;100.00;100370.13;5060257;28;20080;-85
2023/04/02 03:17:04;;;;;;;;;;;;;;;6.68;100.00;100375.44;5061487;28;20052;-86
2023/04/02 03:19:37;;;;;;;4.70;4.00;;;;;;;6.68;100.00;100371.06;5061033;28;19921;-86
2023/04/02 03:22:08;;;;;;;5.70;4.60;;;;;;;6.61;100.00;100380.41;5060201;28;20079;-85
2023/04/02 03:24:41;;;;;;;4.97;4.45;;;;;;;6.57;100.00;100384.22;5061802;28;20092;-85
2023/04/02 03:27:12;;;;;;;;;;;;;;;6.53;100.00;100382.84;5061457;28;20084;-86
2023/04/02 03:29:43;;;;;;;5.68;4.47;;;;;;;6.47;100.00;100393.78;5061989;28;19920;-87
2023/04/02 03:32:16;;;;;;;5.32;4.25;;;;;;;6.37;100.00;100405.94;5059607;28;20080;-85
2023/04/02 03:34:46;;;;;;;6.22;4.40;;;;;;;6.37;100.00;100405.94;5058411;28;20557;-85
2023/04/02 03:37:18;;;;;;;5.57;4.65;;;;;;;6.29;100.00;100412.63;5057308;28;20087;-86
2023/04/02 03:39:50;;;;;;;9.80;6.43;;;;;;;6.34;100.00;100430.44;5048982;28;20132;-85
2023/04/02 03:42:23;;;;;;;5.78;4.65;;;;;;;6.27;100.00;100431.91;5055666;28;20374;-86
2023/04/02 03:44:54;;;;;;;;;;;;;;;6.28;100.00;100431.78;5057581;28;20041;-86
2023/04/02 03:47:30;;;;;;;6.00;5.00;;;;;;;6.25;100.00;100449.41;5060641;28;19920;-85
2023/04/02 03:50:01;;;;;;;6.10;5.00;;;;;;;6.10;100.00;100435.16;5061000;28;20127;-87
2023/04/02 03:52:29;;;;;;;6.57;5.38;;;;;;;6.10;100.00;100448.97;5061448;28;20124;-87
2023/04/02 03:54:59;;;;;;;7.50;5.95;;;;;;;6.09;100.00;100462.91;5061924;28;20066;-87
2023/04/02 03:57:32;;;;;;;7.25;6.13;;;;;;;6.05;100.00;100465.91;5060291;28;20052;-86
2023/04/02 04:00:05;;;;;;;8.82;6.68;;;;;;;6.01;100.00;100473.13;5060057;28;20048;-86
2023/04/02 04:02:41;;;;;;;8.27;6.40;;;;;;;6.03;100.00;100473.81;5059126;28;20108;-84
2023/04/02 04:05:21;;;;;;;7.90;6.20;;;;;;;5.98;100.00;100488.97;5059526;28;20080;-85
2023/04/02 04:07:51;;;;;;;8.02;6.13;;;;;;;6.01;100.00;100491.31;5070616;28;20037;-85
2023/04/02 04:10:23;;;;;;;7.78;6.00;;;;;;;6.01;100.00;100486.13;5078813;28;20040;-84
2023/04/02 04:12:52;;;;;;;6.90;5.90;;;;;;;5.99;100.00;100494.03;5071808;28;20033;-85
2023/04/02 04:15:25;;;;;;;7.05;6.00;;;;;;;6.02;100.00;100497.34;5079391;28;20048;-85
2023/04/02 04:18:00;;;;;;;6.95;5.53;;;;;;;6.03;100.00;100512.78;5079580;28;20052;-85
2023/04/02 04:20:33;;;;;;;6.97;5.57;;;;;;;6.06;100.00;100519.50;5079225;28;20029;-84
2023/04/02 04:23:10;;;;;;;7.40;5.72;;;;;;;5.99;100.00;100514.00;5079345;28;20043;-83
2023/04/02 04:25:38;;;;;;;8.00;6.40;;;;;;;6.00;100.00;100523.44;5079690;28;20052;-85
2023/04/02 04:28:15;;;;;;;8.93;7.03;;;;;;;5.89;100.00;100528.69;5077611;28;20057;-87
2023/04/02 04:30:51;;;;;;;8.10;6.32;;;;;;;5.88;100.00;100533.03;5062445;28;20071;-86
2023/04/02 04:33:21;;;;;;;8.13;6.43;;;;;;;5.85;100.00;100535.06;5063491;28;20135;-86
2023/04/02 04:35:52;;;;;;;8.38;7.20;;;;;;;5.84;100.00;100556.78;5062506;28;20499;-85
2023/04/02 04:38:26;;;;;;;7.90;6.85;;;;;;;5.85;100.00;100551.47;5062763;28;20131;-87
2023/04/02 04:40:57;;;;;;;8.82;6.85;;;;;;;5.83;100.00;100557.75;5062239;28;20053;-87
2023/04/02 04:43:29;;;;;;;9.10;6.88;;;;;;;5.79;100.00;100556.34;5061426;28;20135;-86
2023/04/02 04:46:02;;;;;;;7.88;6.57;;;;;;;5.78;100.00;100565.09;5062557;28;20131;-86
2023/04/02 04:48:35;;;;;;;8.20;6.88;;;;;;;5.80;100.00;100576.16;5060707;28;20711;-86
2023/04/02 04:51:05;;;;;;;8.65;6.25;;;;;;;5.74;100.00;100582.69;5061872;28;20049;-85
2023/04/02 04:53:32;;;;;;;7.50;6.60;;;;;;;5.68;100.00;100593.56;5061649;28;20059;-85
2023/04/02 04:56:01;;;;;;;7.05;6.25;;;;;;;5.66;100.00;100596.31;5062577;28;20075;-86
2023/04/02 04:58:34;;;;;;;8.18;6.50;;;;;;;5.70;100.00;100603.84;5061128;28;20108;-86
2023/04/02 05:01:07;;;;;;;7.93;6.38;;;;;;;5.63;100.00;100599.16;5061778;28;20108;-86
2023/04/02 05:03:38;;;;;;;7.68;6.57;;;;;;;5.64;100.00;100600.81;5061827;28;20081;-87
2023/04/02 05:06:20;;;;;;;7.90;6.45;;;;;;;5.60;100.00;100612.41;5061041;28;20127;-85
2023/04/02 05:08:50;;;;;;;8.23;6.20;;;;;;;5.61;100.00;100618.41;5061440;28;20056;-86
2023/04/02 05:11:26;;;;;;;8.77;6.97;;;;;;;5.55;100.00;100608.53;5061623;28;20075;-85
2023/04/02 05:13:58;;;;;;;7.50;6.30;;;;;;;5.55;100.00;100637.91;5061841;28;20049;-86
2023/04/02 05:16:32;;;;;;;8.13;6.80;;;;;;;5.59;100.00;100634.09;5062149;28;20575;-86
2023/04/02 05:19:05;;;;;;;8.63;7.10;;;;;;;5.62;100.00;100641.66;5060933;28;20069;-86
2023/04/02 05:21:41;;;;;;;8.05;6.60;;;;;;;5.62;100.00;100646.84;5060730;28;20052;-87
2023/04/02 05:24:36;;;;;;;8.73;7.03;;;;;;;5.66;100.00;100652.63;5061599;28;20067;-85
2023/04/02 05:27:12;;;;;;;10.80;8.98;;;;;;;5.63;100.00;100658.06;5057007;28;20052;-86
2023/04/02 05:29:44;;;;;;;10.60;8.90;;;;;;;5.66;100.00;100663.81;5061909;28;20091;-86
2023/04/02 05:32:18;;;;;;;11.25;9.45;;;;;;;5.57;100.00;100659.38;5062499;28;20060;-87
2023/04/02 05:34:50;;;;;;;9.85;8.35;;;;;;;5.57;100.00;100677.53;5061884;28;20053;-87
2023/04/02 05:37:20;;;;;;;11.43;7.63;;;;;;;5.43;100.00;100697.72;5062625;28;20108;-85
2023/04/02 05:39:50;;;;;;;10.13;7.78;;;;;;;5.40;100.00;100698.81;5061753;28;20049;-87
2023/04/02 05:42:22;;;;;;;9.35;7.47;;;;;;;5.36;100.00;100707.78;5060506;28;20076;-87
2023/04/02 05:45:00;;;;;;;9.77;8.25;;;;;;;5.45;100.00;100712.25;5040719;28;20124;-86
2023/04/02 05:47:31;;;;;;;10.45;7.78;;;;;;;5.43;100.00;100714.13;5058469;28;20122;-87
2023/04/02 05:50:18;;;;;;;8.70;7.38;;;;;;;5.38;100.00;100731.81;5060720;28;20111;-86
2023/04/02 05:52:49;;;;;;;9.38;7.47;;;;;;;5.38;100.00;100725.81;5061036;28;20087;-87
2023/04/02 05:55:32;;;;;;;9.70;7.80;;;;;;;5.37;100.00;100740.56;5059996;28;20048;-86
2023/04/02 05:58:04;;;;;;;8.95;7.45;;;;;;;5.32;100.00;100740.09;5041126;28;20472;-86
2023/04/02 06:00:53;;;;;;;10.80;7.43;;;;;;;5.34;100.00;100743.38;5039466;28;20081;-86
2023/04/02 06:03:28;;;;;;;9.20;7.38;;;;;;;5.33;100.00;100752.94;5038656;28;20449;-87
2023/04/02 06:05:59;;;;;;;9.98;7.97;;;;;;;5.35;100.00;100760.59;5038764;28;20105;-88
2023/04/02 06:08:34;;;;;;;10.90;8.35;;;;;;;5.39;100.00;100775.00;5048066;28;20057;-87
2023/04/02 06:11:07;;;;;;;10.85;8.45;;;;;;;5.41;100.00;100765.31;5059276;28;20403;-86
2023/04/02 06:13:34;;;;;;;12.95;9.70;;;;;;;5.38;100.00;100778.53;5059020;28;20089;-86
2023/04/02 06:16:01;;;;;;;13.15;9.73;;;;;;;5.31;100.00;100773.00;5058233;28;20128;-87
2023/04/02 06:18:31;;;;;;;12.45;10.07;;;;;;;5.29;100.00;100781.84;5057976;28;20115;-85
2023/04/02 06:20:59;;;;;;;14.05;10.75;;;;;;;5.27;100.00;100791.50;5057642;28;20075;-87
2023/04/02 06:23:31;;;;;;;15.43;12.02;;;;;;;5.32;100.00;100789.38;5058642;28;20405;-85
2023/04/02 06:26:03;;;;;;;18.10;13.68;;;;;;;5.32;100.00;100802.38;5058970;28;20081;-86
2023/04/02 06:28:36;;;;;;;18.08;12.68;;;;;;;5.27;100.00;100802.72;5059196;28;20049;-85
2023/04/02 06:31:07;;;;;;;15.90;12.13;;;;;;;5.18;100.00;100813.00;5058787;28;20487;-87
2023/04/02 06:33:35;;;;;;;15.35;11.65;;;;;;;5.25;100.00;100816.75;5058662;28;20272;-86
2023/04/02 06:36:03;;;;;;;14.20;10.90;;;;;;;5.21;100.00;100810.97;5058913;28;20091;-86
2023/04/02 06:38:32;;;;;;;12.32;9.07;;;;;;;5.24;100.00;100822.88;5057778;28;20080;-86
2023/04/02 06:41:02;;;;;;;13.50;10.15;;;;;;;5.19;100.00;100825.03;5058552;28;20048;-87
2023/04/02 06:43:35;;;;;;;12.10;9.32;;;;;;;5.18;100.00;100831.97;5058974;28;20126;-86
2023/04/02 06:46:07;;;;;;;14.70;10.85;;;;;;;5.21;100.00;100843.84;5058827;28;20049;-87
2023/04/02 06:48:37;;;;;;;16.40;11.57;;;;;;;5.05;100.00;100840.78;5061288;28;20068;-87
2023/04/02 06:51:15;;;;;;;14.93;11.05;;;;;;;5.02;100.00;100849.63;5062597;28;20061;-87
2023/04/02 06:56:30;;;;;;;12.50;9.73;;;;;;;4.77;100.00;100860.97;5068589;28;20079;-86
2023/04/02 06:58:57;;;;;;;13.73;10.38;;;;;;;4.85;100.00;100874.22;5058458;28;20041;-87
2023/04/02 07:01:27;;;;;;;15.23;10.32;;;;;;;4.74;100.00;100871.56;5057670;28;20056;-87
2023/04/02 07:03:56;;;;;;;14.95;10.48;;;;;;;4.76;100.00;100885.25;5057889;28;20518;-87
2023/04/02 07:06:23;;;;;;;17.80;10.68;;;;;;;4.78;100.00;100892.91;5059546;28;20183;-87
2023/04/02 07:08:50;;;;;;;14.00;10.85;;;;;;;4.72;100.00;100889.03;5057807;28;20064;-87
2023/04/02 07:11:18;;;;;;;14.13;10.10;;;;;;;4.69;100.00;100899.63;5058599;28;20067;-88
2023/04/02 07:13:45;;;;;;;15.85;10.57;;;;;;;4.80;100.00;100907.44;5058613;28;20083;-87
2023/04/02 07:16:14;;;;;;;14.18;10.25;;;;;;;4.87;100.00;100913.81;5061487;28;20072;-87
2023/04/02 07:18:41;;;;;;;13.45;9.82;;;;;;;4.85;100.00;100907.09;5058256;28;20060;-87
2023/04/02 07:21:12;;;;;;;14.32;10.15;;;;;;;4.97;100.00;100914.81;5059436;28;20080;-88
2023/04/02 07:23:39;;;;;;;14.50;10.52;;;;;;;5.08;100.00;100937.38;5061068;28;20045;-86
2023/04/02 07:26:07;;;;;;;14.85;11.38;;;;;;;4.85;100.00;100933.84;5060351;28;20049;-87
2023/04/02 07:28:34;;;;;;;15.85;11.00;;;;;;;4.82;100.00;100935.84;5060771;28;20156;-86
2023/04/02 07:31:01;;;;;;;16.08;11.18;;;;;;;4.93;100.00;100951.44;5062427;28;20053;-86
2023/04/02 07:33:30;;;;;;;16.05;10.32;;;;;;;4.80;100.00;100948.09;5060861;28;20136;-86
2023/04/02 07:35:58;;;;;;;18.35;11.13;;;;;;;4.89;100.00;100958.63;5060975;28;20171;-86
2023/04/02 07:38:26;;;;;;;16.15;10.43;;;;;;;4.80;100.00;100967.06;5061710;28;20088;-86
2023/04/02 07:40:53;;;;;;;17.38;10.60;;;;;;;4.72;100.00;100974.59;5054308;28;20080;-85
2023/04/02 07:43:20;;;;;;;14.90;10.43;;;;;;;4.77;100.00;100972.47;5060122;28;20045;-86
2023/04/02 07:45:47;;;;;;;15.32;10.93;;;;;;;4.69;100.00;100972.22;5046210;28;20048;-86
2023/04/02 07:48:14;;;;;;;16.05;10.27;;;;;;;4.76;100.00;100986.38;5061435;28;20056;-86
2023/04/02 07:50:41;;;;;;;17.30;11.02;;;;;;;4.95;100.00;100989.28;5077556;28;20380;-86
2023/04/02 07:53:15;;;;;;;14.38;9.88;;;;;;;4.91;100.00;100993.03;5079025;28;20029;-87
2023/04/02 07:55:43;;;;;;;17.55;10.63;;;;;;;4.85;100.00;100987.47;5078371;28;20053;-86
2023/04/02 07:58:10;;;;;;;14.85;10.57;;;;;;;4.70;100.00;100999.78;5079677;28;20056;-87
2023/04/02 08:00:37;;;;;;;15.68;10.40;;;;;;;4.75;100.00;101000.25;5079194;28;20052;-86
2023/04/02 08:03:04;;;;;;;15.38;9.90;;;;;;;4.75;100.00;101012.41;5079257;28;20056;-87
2023/04/02 08:05:31;;;;;;;12.80;9.65;;;;;;;4.81;100.00;101011.97;5077335;28;20075;-86
2023/04/02 08:07:57;;;;;;;15.75;10.32;;;;;;;4.83;100.00;101016.09;5060320;28;20171;-85
2023/04/02 08:10:24;;;;;;;13.52;9.82;;;;;;;4.82;100.00;101018.81;5061216;28;20459;-88
2023/04/02 08:13:04;;;;;;;16.80;10.43;;;;;;;4.87;100.00;101022.72;5061221;28;20053;-88
2023/04/02 08:15:30;;;;;;;16.23;11.15;;;;;;;4.93;99.86;101031.84;5061112;28;20052;-86
2023/04/02 08:17:57;;;;;;;16.00;10.23;;;;;;;4.98;99.95;101020.19;5060965;28;20079;-86
2023/04/02 08:20:24;;;;;;;17.35;10.43;;;;;;;5.16;99.44;101043.16;5060381;28;20109;-86
2023/04/02 08:22:51;;;;;;;17.70;10.90;;;;;;;5.16;98.98;101043.16;5067543;28;20049;-86
2023/04/02 08:25:18;;;;;;;17.20;10.82;;;;;;;5.21;98.82;101054.84;5066168;28;20053;-86
2023/04/02 08:27:48;;;;;;;15.88;10.48;;;;;;;5.26;98.57;101057.09;5064288;28;20520;-84
2023/04/02 08:30:17;;;;;;;16.13;10.23;;;;;;;5.14;98.47;101056.25;5064144;28;20057;-85
2023/04/02 08:32:44;;;;;;;17.30;10.65;;;;;;;5.22;98.58;101063.44;5063606;28;20056;-85
2023/04/02 08:35:15;;;;;;;16.38;10.32;;;;;;;5.12;98.25;101072.84;5064923;28;20052;-84
2023/04/02 08:37:42;;;;;;;14.70;10.82;;;;;;;5.17;98.45;101081.13;5064211;28;20055;-84
2023/04/02 08:40:20;;;;;;;16.42;10.70;;;;;;;5.22;98.54;101090.22;5065638;28;20084;-85
2023/04/02 08:43:02;;;;;;;15.02;10.00;;;;;;;5.26;98.43;101093.41;5076136;28;20041;-85
2023/04/02 08:45:44;;;;;;;13.70;9.60;;;;;;;5.20;98.12;101097.28;5078093;28;20045;-86
2023/04/02 08:48:14;;;;;;;15.80;9.48;;;;;;;5.08;97.62;101098.19;5078240;28;20045;-86
2023/04/02 08:50:43;;;;;;;16.38;10.55;;;;;;;5.23;97.65;101114.41;5076890;28;20033;-87
2023/04/02 08:53:16;;;;;;;32.70;23.83;;;;;;;5.15;96.86;101114.13;5076912;28;20075;-86
2023/04/02 08:55:54;;;;;;;16.08;11.73;;;;;;;4.92;97.35;101118.34;5077031;28;20033;-87
2023/04/02 08:58:29;;;;;;;18.23;11.13;;;;;;;5.04;97.44;101116.66;5076273;28;20092;-84
2023/04/02 09:01:02;;;;;;;15.00;10.93;;;;;;;4.94;97.06;101127.69;5066882;28;20076;-85
2023/04/02 09:03:32;;;;;;;20.35;13.07;;;;;;;5.03;97.35;101127.97;5062882;28;20081;-85
2023/04/02 09:06:03;;;;;;;14.57;10.05;;;;;;;5.10;97.43;101131.78;5063554;28;20048;-86
2023/04/02 09:08:32;;;;;;;17.38;12.77;;;;;;;5.18;97.29;101139.88;5062867;28;20041;-85
2023/04/02 09:11:06;;;;;;;13.00;10.05;;;;;;;5.15;96.81;101145.28;5064158;28;20335;-86
2023/04/02 09:13:36;;;;;;;14.32;9.77;;;;;;;5.29;96.56;101153.72;5055524;28;20064;-86
2023/04/02 09:16:09;;;;;;;16.25;10.32;;;;;;;5.41;96.16;101152.00;5058992;28;20571;-86
2023/04/02 09:18:37;;;;;;;13.93;10.07;;;;;;;5.41;95.43;101156.38;5065050;28;20060;-86
2023/04/02 09:21:27;;;;;;;15.10;9.90;;;;;;;5.36;94.96;101148.09;5064976;28;20067;-86
2023/04/02 09:23:54;;;;;;;14.90;9.60;;;;;;;5.55;95.10;101164.00;5057418;28;20069;-86
2023/04/02 09:26:23;;;;;;;12.27;9.18;;;;;;;5.64;94.50;101164.16;5065171;28;20100;-86
2023/04/02 09:28:52;;;;;;;13.77;9.05;;;;;;;5.50;94.06;101174.72;5065001;28;20111;-85
2023/04/02 09:31:27;;;;;;;14.57;9.90;;;;;;;5.46;94.24;101186.25;5066277;28;20049;-86
2023/04/02 09:33:54;;;;;;;15.50;9.98;;;;;;;5.37;94.22;101184.31;5057542;28;20084;-86
2023/04/02 09:36:33;;;;;;;17.73;10.27;;;;;;;5.46;94.78;101182.84;5065911;28;20083;-86
2023/04/02 09:39:05;;;;;;;14.90;9.32;;;;;;;5.43;94.36;101191.66;5065832;28;20360;-86
2023/04/02 09:41:34;;;;;;;14.07;9.45;;;;;;;5.58;94.08;101208.75;5064299;28;20068;-86
2023/04/02 09:44:30;;;;;;;14.00;8.93;;;;;;;5.52;93.70;101210.94;5065243;28;20052;-86
2023/04/02 09:49:41;;;;;;;11.77;8.48;;;;;;;5.59;93.88;101217.38;4968679;28;1113613;-86
2023/04/02 09:52:20;;;;;;;14.98;9.43;;;;;;;5.68;93.45;101233.09;5071036;28;20056;-86
2023/04/02 09:55:04;;;;;;;13.48;9.02;;;;;;;5.54;93.21;101233.25;5066274;28;20087;-85
2023/04/02 09:57:36;;;;;;;10.93;8.63;;;;;;;5.44;93.26;101237.44;5065585;28;20123;-85
2023/04/02 10:00:16;;;;;;;16.05;8.25;;;;;;;5.53;93.33;101239.41;5064113;28;20109;-86
2023/04/02 10:02:46;;;;;;;14.27;9.05;;;;;;;5.59;93.30;101238.97;5064758;28;20075;-86
2023/04/02 10:05:19;;;;;;;14.02;8.95;;;;;;;5.64;93.22;101251.63;5063721;28;20106;-86
2023/04/02 10:07:48;;;;;;;12.77;9.57;;;;;;;5.64;93.29;101257.66;5057726;28;20063;-87
2023/04/02 10:10:20;;;;;;;13.73;9.02;;;;;;;5.65;93.23;101263.66;5064372;28;20124;-87
2023/04/02 10:12:49;;;;;;;;;;;;;;;5.67;92.62;101272.19;5065049;28;20618;-87
2023/04/02 10:15:20;;;;;;;15.73;9.93;;;;;;;5.50;92.86;101260.38;5067028;28;20020;-87
2023/04/02 10:17:59;;;;;;;13.40;8.40;;;;;;;5.71;92.91;101270.16;5047096;28;20171;-86
2023/04/02 10:20:29;;;;;;;11.80;8.85;;;;;;;5.67;92.15;101287.75;5062472;28;20056;-88
2023/04/02 10:22:56;;;;;;;13.00;8.60;;;;;;;5.83;91.69;101283.09;5065840;28;20060;-88
2023/04/02 10:25:29;;;;;;;12.25;8.68;;;;;;;5.66;91.19;101281.72;5063157;28;20053;-87
2023/04/02 10:28:07;;;;;;;14.55;8.85;;;;;;;5.69;91.50;101304.03;5065183;28;20056;-87
2023/04/02 10:30:46;;;;;;;11.85;7.95;;;;;;;5.74;90.98;101293.31;5059677;28;20052;-87
2023/04/02 10:33:20;;;;;;;12.57;8.48;;;;;;;5.90;90.37;101305.16;5062528;28;20053;-87
2023/04/02 10:35:55;;;;;;;10.80;7.55;;;;;;;5.88;90.04;101309.59;5069667;28;20063;-86
2023/04/02 10:38:37;;;;;;;13.52;8.10;;;;;;;5.78;90.39;101318.13;5060138;28;20095;-88
2023/04/02 10:41:16;;;;;;;11.65;7.85;;;;;;;5.96;90.43;101317.69;5060756;28;20067;-86
2023/04/02 10:44:03;;;;;;;11.75;8.00;;;;;;;5.74;90.15;101324.47;5059319;28;20041;-87
2023/04/02 10:46:36;;;;;;;12.95;8.23;;;;;;;5.93;90.27;101330.91;5060293;28;20049;-87
2023/04/02 10:49:16;;;;;;;12.55;7.78;;;;;;;5.78;90.12;101331.13;5061709;28;20076;-87
2023/04/02 10:51:45;;;;;;;17.33;8.95;;;;;;;5.94;89.81;101342.94;5062356;28;20049;-87
2023/04/02 10:54:26;;;;;;;10.35;8.10;;;;;;;6.06;90.12;101337.84;5065281;28;20053;-86
2023/04/02 10:56:54;;;;;;;11.63;8.63;;;;;;;5.88;89.78;101345.13;5067076;28;20044;-87
2023/04/02 10:59:25;;;;;;;13.20;8.38;;;;;;;5.86;90.00;101359.97;5068248;28;20049;-87
2023/04/02 11:01:57;;;;;;;10.75;7.97;;;;;;;5.85;90.00;101364.34;5066802;28;20071;-86
2023/04/02 11:04:28;;;;;;;11.15;8.10;;;;;;;5.79;89.60;101359.56;5068750;28;20057;-87
2023/04/02 11:07:00;;;;;;;11.82;8.25;;;;;;;5.99;89.74;101371.22;5067079;28;20045;-87
2023/04/02 11:09:34;;;;;;;13.77;8.18;;;;;;;6.04;89.25;101376.09;5068406;28;20048;-87
2023/04/02 11:12:02;;;;;;;13.73;8.50;;;;;;;6.11;88.95;101365.16;5070575;28;20041;-87
2023/04/02 11:14:36;;;;;;;12.18;7.97;;;;;;;6.14;88.57;101375.31;5068798;28;20075;-86
2023/04/02 11:17:03;;;;;;;12.27;8.40;;;;;;;6.21;88.19;101380.88;5069023;28;20074;-86
2023/04/02 11:19:33;;;;;;;11.50;8.02;;;;;;;6.33;87.99;101369.63;5067779;28;20076;-86
2023/04/02 11:22:02;;;;;;;10.63;8.00;;;;;;;6.40;87.90;101380.41;5067024;28;20483;-87
2023/04/02 11:24:37;;;;;;;15.80;8.23;;;;;;;6.59;87.66;101386.78;5069038;28;20068;-86
2023/04/02 11:27:07;;;;;;;12.18;8.43;;;;;;;6.72;87.21;101384.06;5066560;28;20045;-88
2023/04/02 11:29:36;;;;;;;11.23;8.13;;;;;;;6.50;86.64;101389.19;5066883;28;20069;-87
2023/04/02 11:32:26;;;;;;;11.27;7.90;;;;;;;6.43;87.01;101390.59;5066598;28;20056;-88
2023/04/02 11:35:46;;;;;;;10.07;7.90;;;;;;;6.52;87.08;101401.16;5067100;28;20053;-87
2023/04/02 11:38:52;;;;;;;10.57;8.32;;;;;;;6.79;86.67;101405.28;5057903;28;20083;-88
2023/04/02 11:41:52;;;;;;;11.15;8.57;;;;;;;6.71;85.94;101395.44;5054736;28;20059;-87
2023/04/02 11:44:23;;;;;;;9.73;8.07;;;;;;;6.52;85.88;101400.31;5055209;28;20073;-87
2023/04/02 11:46:50;;;;;;;16.23;8.20;;;;;;;6.50;85.99;101402.22;5070876;28;20106;-87
2023/04/02 11:49:38;;;;;;;9.77;7.50;;;;;;;6.65;85.87;101408.88;5065694;28;20051;-86
2023/04/02 11:52:23;;;;;;;13.32;7.63;;;;;;;6.81;85.48;101406.81;5064396;28;20518;-87